Time;durP1;ratioP1;P1;durP2;ratioP2;P2;SDS_P1;SDS_P2;PMS_P1;PMS_P2;Temp;Humidity;BMP_temperature;BMP_pressure;BME280_temperature;BME280_humidity;BME280_pressure;Samples;Min_cycle;Max_cycle;Signal;HPM_P1;HPM_P2
2021/04/29 00:00:18;;;;;;;7.38;3.30;;;;;;;6.41;68.93;100193.19;4993316;28;20053;-71
2021/04/29 00:02:45;;;;;;;6.18;3.45;;;;;;;6.45;68.57;100184.41;4991881;28;20390;-72
2021/04/29 00:05:15;;;;;;;17.80;3.67;;;;;;;6.56;68.24;100190.59;5025367;28;20072;-72
2021/04/29 00:07:42;;;;;;;7.35;3.88;;;;;;;6.70;68.46;100188.00;4993219;28;20052;-70
2021/04/29 00:10:12;;;;;;;7.63;4.38;;;;;;;6.57;67.70;100183.59;4993086;28;20084;-70
2021/04/29 00:12:38;;;;;;;13.25;4.15;;;;;;;6.63;67.30;100187.13;4991346;28;20057;-72
2021/04/29 00:15:06;;;;;;;5.03;3.20;;;;;;;6.47;67.28;100187.94;5009266;28;20034;-72
2021/04/29 00:17:32;;;;;;;6.68;3.55;;;;;;;6.59;67.38;100184.44;5009166;28;20048;-72
2021/04/29 00:19:58;;;;;;;11.85;3.17;;;;;;;6.59;66.94;100184.44;5026959;28;20354;-71
2021/04/29 00:22:24;;;;;;;7.63;3.47;;;;;;;6.49;66.39;100190.59;5024941;28;20460;-71
2021/04/29 00:24:49;;;;;;;8.80;3.67;;;;;;;6.46;67.45;100196.72;5025374;28;20057;-70
2021/04/29 00:27:15;;;;;;;7.68;3.78;;;;;;;6.45;67.21;100194.94;4992486;28;20083;-71
2021/04/29 00:29:41;;;;;;;6.53;3.70;;;;;;;6.44;67.10;100189.72;5000805;28;20077;-71
2021/04/29 00:32:07;;;;;;;6.25;3.25;;;;;;;6.38;67.02;100197.56;5005426;28;20034;-69
2021/04/29 00:34:33;;;;;;;13.85;4.30;;;;;;;6.43;66.78;100194.06;5007006;28;20096;-69
2021/04/29 00:36:59;;;;;;;11.57;4.47;;;;;;;6.50;66.95;100197.59;4973196;28;20042;-68
2021/04/29 00:39:24;;;;;;;9.48;4.10;;;;;;;6.31;67.26;100195.78;5017638;28;20045;-69
2021/04/29 00:41:50;;;;;;;10.43;4.55;;;;;;;6.29;67.54;100195.78;4992420;28;20841;-69
2021/04/29 00:44:16;;;;;;;7.93;3.80;;;;;;;6.47;66.71;100200.22;5026906;28;20060;-69
2021/04/29 00:46:42;;;;;;;10.63;3.78;;;;;;;6.46;66.98;100209.00;5026542;28;20046;-69
2021/04/29 00:49:08;;;;;;;10.38;4.47;;;;;;;6.36;66.98;100196.66;5024525;28;20095;-69
2021/04/29 00:51:34;;;;;;;13.23;3.97;;;;;;;6.43;67.59;100201.09;5008622;28;20552;-70
2021/04/29 00:54:00;;;;;;;8.70;4.03;;;;;;;6.36;67.80;100200.19;4975494;28;20044;-69
2021/04/29 00:56:26;;;;;;;6.93;3.90;;;;;;;6.53;67.67;100202.91;4991356;28;20459;-69
2021/04/29 00:58:52;;;;;;;6.15;3.33;;;;;;;6.55;66.56;100203.75;5001695;28;20056;-72
2021/04/29 01:01:20;;;;;;;7.82;3.50;;;;;;;6.48;67.51;100204.66;5025794;28;20476;-70
2021/04/29 01:03:46;;;;;;;5.28;3.25;;;;;;;6.46;66.72;100206.38;5008545;28;20481;-71
2021/04/29 01:06:17;;;;;;;7.38;3.58;;;;;;;6.40;66.90;100186.16;4973597;28;20118;-70
2021/04/29 01:08:58;;;;;;;8.40;3.22;;;;;;;6.51;66.93;100173.03;5003765;28;20049;-71
2021/04/29 01:11:28;;;;;;;7.03;3.60;;;;;;;6.56;67.20;100216.94;4989236;28;20116;-72
2021/04/29 01:13:56;;;;;;;8.63;3.80;;;;;;;6.52;67.11;100212.53;4992114;28;21137;-71
2021/04/29 01:16:24;;;;;;;8.95;4.32;;;;;;;6.63;67.48;100216.09;5008366;28;20060;-70
2021/04/29 01:18:53;;;;;;;7.13;2.88;;;;;;;6.61;67.06;100232.78;5023756;28;20044;-71
2021/04/29 01:21:21;;;;;;;6.75;3.47;;;;;;;6.67;66.82;100225.75;5005678;28;20087;-71
2021/04/29 01:24:05;;;;;;;10.15;3.40;;;;;;;6.63;66.32;100225.75;4989228;28;20041;-72
2021/04/29 01:26:40;;;;;;;6.20;3.15;;;;;;;6.60;66.85;100238.94;4999829;28;20128;-67
2021/04/29 01:29:11;;;;;;;7.15;3.42;;;;;;;6.59;66.84;100227.50;5005549;28;20122;-71
2021/04/29 01:31:40;;;;;;;8.35;3.65;;;;;;;6.50;67.21;100243.28;5006601;28;20075;-71
2021/04/29 01:34:11;;;;;;;6.32;3.83;;;;;;;6.40;66.75;100219.50;5005436;28;20033;-72
2021/04/29 01:36:39;;;;;;;7.00;3.00;;;;;;;6.40;66.45;100222.13;5024363;28;20076;-69
2021/04/29 01:39:08;;;;;;;8.63;3.45;;;;;;;6.57;65.95;100238.91;5005483;28;20041;-71
2021/04/29 01:41:37;;;;;;;9.52;2.97;;;;;;;6.47;66.08;100235.38;5022111;28;20494;-72
2021/04/29 01:44:05;;;;;;;6.10;3.00;;;;;;;6.45;66.37;100231.81;5006558;28;20076;-71
2021/04/29 01:46:32;;;;;;;5.70;3.22;;;;;;;6.53;65.88;100243.25;4989921;28;20453;-69
2021/04/29 01:49:00;;;;;;;6.95;3.28;;;;;;;6.47;65.74;100239.72;5004099;28;20585;-69
2021/04/29 01:51:26;;;;;;;6.63;3.30;;;;;;;6.46;65.99;100252.03;5023483;28;20333;-68
2021/04/29 01:53:52;;;;;;;8.10;3.03;;;;;;;6.53;65.83;100250.31;5014349;28;20073;-68
2021/04/29 01:56:19;;;;;;;4.43;2.72;;;;;;;6.42;65.61;100258.19;5005181;28;20088;-69
2021/04/29 01:58:45;;;;;;;4.70;2.80;;;;;;;6.41;65.19;100245.84;4955643;28;20065;-70
2021/04/29 02:01:11;;;;;;;6.43;2.83;;;;;;;6.45;64.69;100245.00;5005944;28;20050;-69
2021/04/29 02:03:39;;;;;;;4.60;2.65;;;;;;;6.53;64.89;100252.94;5006312;28;20100;-70
2021/04/29 02:06:05;;;;;;;8.63;3.00;;;;;;;6.51;65.85;100255.56;4970104;28;20069;-68
2021/04/29 02:08:31;;;;;;;5.15;2.83;;;;;;;6.45;64.44;100247.63;4975953;28;20069;-68
2021/04/29 02:10:58;;;;;;;4.90;2.85;;;;;;;6.43;65.08;100264.31;5007920;28;20059;-69
2021/04/29 02:13:29;;;;;;;5.93;2.70;;;;;;;6.39;65.65;100258.16;5024848;28;20462;-67
2021/04/29 02:16:29;;;;;;;5.85;2.58;;;;;;;6.52;65.22;100253.81;5025534;28;20037;-70
2021/04/29 02:18:56;;;;;;;4.03;2.67;;;;;;;6.30;65.04;100246.69;5005883;28;20041;-70
2021/04/29 02:21:23;;;;;;;4.63;2.90;;;;;;;6.29;65.60;100256.34;5021762;28;20091;-70
2021/04/29 02:23:49;;;;;;;6.90;3.00;;;;;;;6.46;65.52;100261.69;4993045;28;20433;-70
2021/04/29 02:26:19;;;;;;;3.75;2.70;;;;;;;6.47;65.29;100256.44;5001712;28;20118;-68
2021/04/29 02:28:46;;;;;;;5.85;2.80;;;;;;;6.13;66.16;100270.28;5007676;28;20152;-71
2021/04/29 02:31:13;;;;;;;3.70;2.35;;;;;;;6.21;66.00;100275.63;5007857;28;20049;-72
2021/04/29 02:33:40;;;;;;;7.10;2.53;;;;;;;6.11;66.37;100276.44;5007491;28;20087;-67
2021/04/29 02:36:07;;;;;;;9.75;3.13;;;;;;;6.12;67.00;100271.19;5023612;28;20504;-70
2021/04/29 02:38:43;;;;;;;7.07;2.95;;;;;;;6.03;67.29;100276.41;5023995;28;20457;-70
2021/04/29 02:41:10;;;;;;;6.28;3.00;;;;;;;6.06;66.74;100275.53;5026053;28;20076;-69
2021/04/29 02:43:37;;;;;;;7.97;3.40;;;;;;;6.02;67.42;100250.06;5027433;28;20049;-68
2021/04/29 02:46:10;;;;;;;4.03;2.80;;;;;;;6.25;67.10;100288.78;5010970;28;20037;-68
2021/04/29 02:48:35;;;;;;;4.18;2.88;;;;;;;6.27;67.12;100291.44;5010246;28;20415;-70
2021/04/29 02:51:02;;;;;;;4.88;3.20;;;;;;;6.31;66.99;100286.22;5008200;28;20099;-72
2021/04/29 02:53:29;;;;;;;5.93;3.20;;;;;;;6.36;66.10;100291.47;5027149;28;20055;-71
2021/04/29 02:55:59;;;;;;;6.90;3.22;;;;;;;6.32;66.30;100298.50;5010637;28;20057;-71
2021/04/29 02:58:25;;;;;;;8.55;3.17;;;;;;;6.43;66.33;100307.34;5008359;28;20107;-70
2021/04/29 03:00:54;;;;;;;6.78;3.40;;;;;;;6.34;66.64;100301.13;5027712;28;20041;-71
2021/04/29 03:03:20;;;;;;;10.15;3.72;;;;;;;6.30;67.23;100308.16;5027806;28;20111;-70
2021/04/29 03:05:47;;;;;;;5.93;3.58;;;;;;;6.30;67.28;100305.53;5027030;28;20492;-68
2021/04/29 03:08:14;;;;;;;14.40;4.00;;;;;;;6.49;66.51;100304.72;5026619;28;20073;-71
2021/04/29 03:10:39;;;;;;;7.70;3.72;;;;;;;6.48;66.91;100305.59;4993522;28;20059;-70
2021/04/29 03:13:05;;;;;;;11.20;4.20;;;;;;;6.67;65.70;100302.19;5010456;28;20477;-69
2021/04/29 03:15:31;;;;;;;7.35;4.03;;;;;;;6.70;65.80;100307.47;5025995;28;20989;-70
2021/04/29 03:17:58;;;;;;;11.95;3.95;;;;;;;6.78;65.71;100310.13;5010579;28;20493;-72
2021/04/29 03:20:24;;;;;;;8.15;4.35;;;;;;;6.80;65.32;100306.59;5010676;28;20044;-71
2021/04/29 03:22:50;;;;;;;9.05;3.80;;;;;;;6.79;65.87;100307.50;5010537;28;20069;-71
2021/04/29 03:25:16;;;;;;;7.03;4.00;;;;;;;6.82;65.94;100312.78;5007660;28;20053;-69
2021/04/29 03:27:42;;;;;;;10.73;4.28;;;;;;;6.48;65.17;100310.00;4994173;28;20049;-70
2021/04/29 03:30:09;;;;;;;7.88;3.45;;;;;;;6.38;65.16;100287.13;5028267;28;20041;-73
2021/04/29 03:32:35;;;;;;;10.88;4.15;;;;;;;6.37;64.90;100299.38;4992447;28;20477;-70
2021/04/29 03:35:03;;;;;;;6.28;3.63;;;;;;;6.45;65.19;100313.47;5010204;28;20057;-71
2021/04/29 03:37:34;;;;;;;9.80;4.40;;;;;;;6.42;65.83;100320.50;5028261;28;20521;-70
2021/04/29 03:40:00;;;;;;;8.88;3.90;;;;;;;6.51;65.94;100312.63;5025856;28;20048;-71
2021/04/29 03:42:27;;;;;;;7.57;4.68;;;;;;;6.27;66.81;100312.50;5026798;28;20556;-72
2021/04/29 03:44:53;;;;;;;10.05;4.47;;;;;;;6.44;66.28;100319.63;5027687;28;20083;-71
2021/04/29 03:47:18;;;;;;;7.80;4.32;;;;;;;6.53;66.40;100324.06;5010621;28;20069;-71
2021/04/29 03:49:44;;;;;;;7.93;4.60;;;;;;;6.62;65.98;100316.19;4992054;28;20135;-69
2021/04/29 03:52:10;;;;;;;7.93;4.20;;;;;;;6.76;65.81;100318.00;5009791;28;20129;-70
2021/04/29 03:54:36;;;;;;;9.27;4.25;;;;;;;6.61;65.83;100323.22;5008599;28;20041;-71
2021/04/29 03:57:03;;;;;;;14.38;4.75;;;;;;;6.59;65.11;100321.44;5009216;28;20045;-71
2021/04/29 03:59:28;;;;;;;16.20;4.97;;;;;;;6.80;64.61;100329.47;5008227;28;20073;-70
2021/04/29 04:01:54;;;;;;;8.63;4.38;;;;;;;6.75;64.40;100313.63;5027348;28;20080;-70
2021/04/29 04:04:21;;;;;;;10.93;4.22;;;;;;;6.67;65.13;100319.72;5027355;28;20049;-71
2021/04/29 04:06:47;;;;;;;11.82;4.40;;;;;;;6.82;64.95;100325.97;5008234;28;20340;-70
2021/04/29 04:09:13;;;;;;;10.35;4.80;;;;;;;6.75;64.02;100329.44;5026659;28;20476;-71
2021/04/29 04:11:38;;;;;;;8.95;4.53;;;;;;;6.81;64.52;100323.31;5027024;28;20119;-72
2021/04/29 04:14:04;;;;;;;10.95;4.93;;;;;;;6.67;63.99;100306.56;5009139;28;20049;-70
2021/04/29 04:16:30;;;;;;;20.23;4.45;;;;;;;6.74;63.96;100335.59;5007457;28;20072;-69
2021/04/29 04:18:57;;;;;;;10.57;5.07;;;;;;;6.79;64.08;100311.88;5026771;28;20056;-69
2021/04/29 04:21:24;;;;;;;10.30;4.53;;;;;;;6.94;64.11;100336.56;5026958;28;20150;-69
2021/04/29 04:23:51;;;;;;;7.97;4.30;;;;;;;6.94;63.66;100333.91;5025276;28;20041;-67
2021/04/29 04:26:17;;;;;;;11.07;4.38;;;;;;;6.94;64.12;100335.66;4991338;28;20792;-68
2021/04/29 04:28:43;;;;;;;8.77;4.40;;;;;;;7.09;63.71;100349.78;5026589;28;20128;-69
2021/04/29 04:31:09;;;;;;;11.25;3.72;;;;;;;7.24;63.45;100354.22;5009164;28;20103;-70
2021/04/29 04:33:35;;;;;;;9.05;4.00;;;;;;;7.44;63.03;100344.59;5024973;28;20053;-70
2021/04/29 04:36:00;;;;;;;8.88;4.00;;;;;;;7.30;62.80;100326.09;5025914;28;20728;-71
2021/04/29 04:38:26;;;;;;;11.63;4.38;;;;;;;7.17;63.06;100326.06;5008067;28;20048;-70
2021/04/29 04:40:52;;;;;;;8.80;4.15;;;;;;;6.89;63.03;100330.34;5026253;28;20033;-69
2021/04/29 04:43:18;;;;;;;8.50;4.63;;;;;;;7.10;63.02;100354.19;5006929;28;20136;-70
2021/04/29 04:45:44;;;;;;;11.68;3.65;;;;;;;7.18;62.48;100338.38;5008867;28;20198;-70
2021/04/29 04:48:10;;;;;;;7.13;4.07;;;;;;;7.47;61.95;100363.03;5026128;28;20041;-71
2021/04/29 04:50:37;;;;;;;11.82;3.90;;;;;;;7.66;62.10;100365.72;4975057;28;20544;-72
2021/04/29 04:53:03;;;;;;;14.40;4.68;;;;;;;7.49;61.75;100335.81;5008509;28;20049;-72
2021/04/29 04:55:30;;;;;;;13.23;4.53;;;;;;;7.53;61.46;100368.34;5025045;28;20041;-70
2021/04/29 04:57:56;;;;;;;21.13;5.78;;;;;;;7.59;61.97;100363.06;5025874;28;20586;-70
2021/04/29 05:00:22;;;;;;;11.77;4.38;;;;;;;7.43;60.95;100361.28;5006203;28;20037;-70
2021/04/29 05:02:48;;;;;;;11.55;4.53;;;;;;;7.45;61.14;100376.25;5026008;28;20405;-70
2021/04/29 05:05:14;;;;;;;7.00;3.83;;;;;;;7.51;60.31;100375.34;5025540;28;20524;-70
2021/04/29 05:07:40;;;;;;;6.35;3.47;;;;;;;7.40;61.05;100366.56;5024945;28;20052;-68
2021/04/29 05:10:07;;;;;;;7.10;3.53;;;;;;;7.33;60.45;100370.06;5005636;28;20172;-69
2021/04/29 05:12:33;;;;;;;7.53;3.80;;;;;;;7.27;60.00;100336.63;4992009;28;20041;-70
2021/04/29 05:14:59;;;;;;;8.82;4.03;;;;;;;7.67;58.39;100372.75;5008378;28;20049;-70
2021/04/29 05:17:25;;;;;;;15.77;4.25;;;;;;;7.51;58.37;100381.53;5023682;28;20513;-69
2021/04/29 05:19:51;;;;;;;4.85;3.17;;;;;;;7.52;57.92;100382.41;5025719;28;20041;-70
2021/04/29 05:22:17;;;;;;;4.35;3.20;;;;;;;7.75;57.47;100376.28;5008415;28;20497;-71
2021/04/29 05:24:43;;;;;;;8.80;3.60;;;;;;;7.86;57.71;100348.13;5007179;28;20082;-70
2021/04/29 05:27:09;;;;;;;6.43;3.10;;;;;;;7.76;57.52;100351.63;4989557;28;20362;-73
2021/04/29 05:29:36;;;;;;;4.22;3.40;;;;;;;7.95;57.45;100374.53;5025378;28;20054;-70
2021/04/29 05:32:01;;;;;;;13.18;3.47;;;;;;;8.11;57.39;100383.34;5007260;28;20048;-71
2021/04/29 05:34:27;;;;;;;8.18;3.70;;;;;;;8.19;56.51;100387.72;5006416;28;20041;-68
2021/04/29 05:36:53;;;;;;;6.30;3.03;;;;;;;8.38;56.82;100381.59;5025640;28;20060;-70
2021/04/29 05:39:19;;;;;;;8.65;3.03;;;;;;;8.24;56.07;100395.69;5007841;28;20107;-73
2021/04/29 05:41:46;;;;;;;6.00;3.55;;;;;;;8.27;55.81;100393.06;4975680;28;20048;-71
2021/04/29 05:44:13;;;;;;;4.47;2.83;;;;;;;7.86;56.10;100394.75;5005234;28;20088;-71
2021/04/29 05:46:41;;;;;;;9.15;2.80;;;;;;;8.03;55.83;100377.19;5007430;28;20068;-70
2021/04/29 05:49:07;;;;;;;6.05;2.80;;;;;;;7.95;55.02;100392.16;5025516;28;20049;-71
2021/04/29 05:51:33;;;;;;;7.05;3.30;;;;;;;8.05;54.78;100372.78;5024052;28;20589;-71
2021/04/29 05:53:59;;;;;;;5.70;3.40;;;;;;;8.02;54.53;100384.22;5006827;28;20041;-70
2021/04/29 05:56:25;;;;;;;7.88;2.95;;;;;;;8.18;53.91;100385.97;5024836;28;20144;-71
2021/04/29 05:58:54;;;;;;;6.40;2.85;;;;;;;8.30;53.20;100390.38;5008328;28;20045;-73
2021/04/29 06:01:20;;;;;;;5.78;2.92;;;;;;;8.49;53.94;100381.56;5005859;28;20378;-71
2021/04/29 06:03:48;;;;;;;10.57;3.40;;;;;;;8.40;53.13;100371.91;5008218;28;20515;-70
2021/04/29 06:06:14;;;;;;;6.90;3.40;;;;;;;8.49;52.89;100371.88;4991355;28;20072;-71
2021/04/29 06:08:43;;;;;;;6.68;3.25;;;;;;;8.44;50.44;100386.88;5005818;28;20045;-67
2021/04/29 06:11:09;;;;;;;4.47;2.63;;;;;;;7.99;50.51;100363.09;5007051;28;20107;-70
2021/04/29 06:13:35;;;;;;;4.68;3.00;;;;;;;8.56;51.37;100393.88;4975277;28;20033;-70
2021/04/29 06:16:01;;;;;;;13.93;3.25;;;;;;;8.64;48.32;100395.66;5027632;28;20526;-69
2021/04/29 06:18:27;;;;;;;5.75;3.05;;;;;;;9.01;48.79;100388.44;4992931;28;20145;-71
2021/04/29 06:20:53;;;;;;;6.68;3.05;;;;;;;9.40;49.14;100391.81;5011158;28;20381;-70
2021/04/29 06:23:19;;;;;;;5.65;3.58;;;;;;;9.31;48.93;100397.13;4994956;28;20095;-70
2021/04/29 06:25:45;;;;;;;5.10;3.00;;;;;;;9.23;49.21;100404.22;5008533;28;20041;-68
2021/04/29 06:28:11;;;;;;;6.55;3.25;;;;;;;9.06;49.13;100411.34;5010606;28;20033;-70
2021/04/29 06:30:38;;;;;;;5.60;2.95;;;;;;;8.79;49.54;100410.59;5011147;28;20037;-71
2021/04/29 06:33:04;;;;;;;6.90;3.40;;;;;;;8.84;51.17;100411.44;5028714;28;20060;-78
2021/04/29 06:35:30;;;;;;;5.13;3.40;;;;;;;8.75;50.21;100395.63;5009954;28;20038;-71
2021/04/29 06:37:57;;;;;;;10.02;4.43;;;;;;;9.22;49.73;100406.91;4995077;28;20087;-76
2021/04/29 06:40:25;;;;;;;6.35;3.13;;;;;;;9.29;48.97;100403.31;4994222;28;20136;-76
2021/04/29 06:42:51;;;;;;;7.20;3.38;;;;;;;9.43;47.24;100399.72;4982266;28;20104;-75
2021/04/29 06:45:17;;;;;;;6.38;3.60;;;;;;;9.27;48.25;100386.59;4980489;28;20042;-75
2021/04/29 06:47:43;;;;;;;4.28;3.10;;;;;;;9.63;47.60;100410.19;4981231;28;20121;-74
2021/04/29 06:50:10;;;;;;;12.45;3.65;;;;;;;9.85;48.17;100417.09;4985296;28;20062;-74
2021/04/29 06:52:36;;;;;;;4.65;2.85;;;;;;;9.94;46.97;100405.56;4980828;28;20046;-71
2021/04/29 06:55:03;;;;;;;6.32;3.00;;;;;;;9.88;47.33;100406.50;5017203;28;20159;-73
2021/04/29 06:57:29;;;;;;;5.60;3.22;;;;;;;9.60;46.12;100418.16;5005071;28;20046;-75
2021/04/29 06:59:55;;;;;;;7.32;2.58;;;;;;;9.49;46.00;100415.56;4963891;28;20049;-70
2021/04/29 07:02:21;;;;;;;4.72;2.70;;;;;;;10.33;44.40;100406.19;5009646;28;20128;-72
2021/04/29 07:04:47;;;;;;;12.40;2.65;;;;;;;10.80;44.08;100405.72;5028094;28;20041;-76
2021/04/29 07:07:17;;;;;;;5.28;2.80;;;;;;;10.88;42.16;100415.31;5011780;28;20095;-75
2021/04/29 07:09:56;;;;;;;6.68;3.10;;;;;;;11.49;41.88;100402.19;5009244;28;20049;-76
2021/04/29 07:12:22;;;;;;;7.35;2.90;;;;;;;11.76;41.48;100413.34;5030059;28;20178;-74
2021/04/29 07:14:49;;;;;;;7.43;2.90;;;;;;;10.92;43.03;100397.59;5010698;28;20076;-73
2021/04/29 07:17:21;;;;;;;9.27;3.38;;;;;;;11.09;43.71;100415.09;5009435;28;20060;-75
2021/04/29 07:19:50;;;;;;;5.82;3.20;;;;;;;11.13;41.98;100418.59;5010849;28;20045;-75
2021/04/29 07:22:17;;;;;;;7.90;3.08;;;;;;;10.98;43.01;100400.19;4993910;28;20068;-73
2021/04/29 07:24:46;;;;;;;4.15;2.80;;;;;;;10.86;43.04;100417.13;5009623;28;20398;-73
2021/04/29 07:27:13;;;;;;;4.32;2.90;;;;;;;10.88;43.02;100425.06;5010505;28;20064;-72
2021/04/29 07:29:41;;;;;;;4.65;3.20;;;;;;;10.77;42.60;100429.59;4994782;28;20421;-72
2021/04/29 07:32:19;;;;;;;8.50;3.10;;;;;;;10.67;42.56;100420.84;5008979;28;20482;-71
2021/04/29 07:34:50;;;;;;;4.22;2.78;;;;;;;10.83;42.63;100414.50;4993874;28;20588;-72
2021/04/29 07:37:16;;;;;;;9.93;3.10;;;;;;;11.23;41.37;100426.41;5027912;28;20041;-72
2021/04/29 07:39:43;;;;;;;5.93;2.70;;;;;;;11.08;41.42;100404.50;4991537;28;20127;-72
2021/04/29 07:42:08;;;;;;;6.88;3.00;;;;;;;11.18;40.59;100422.94;5027339;28;20107;-73
2021/04/29 07:44:35;;;;;;;6.43;2.67;;;;;;;11.27;40.04;100427.28;5009784;28;20098;-73
2021/04/29 07:47:01;;;;;;;8.70;2.63;;;;;;;11.32;40.09;100428.09;5008554;28;20037;-70
2021/04/29 07:49:28;;;;;;;7.18;3.03;;;;;;;10.61;40.72;100423.59;4993518;28;20046;-70
2021/04/29 07:51:54;;;;;;;4.72;2.50;;;;;;;10.70;40.17;100418.19;5027812;28;20053;-72
2021/04/29 07:54:20;;;;;;;8.95;2.42;;;;;;;10.68;40.19;100416.44;5008329;28;20048;-71
2021/04/29 07:56:46;;;;;;;7.45;3.03;;;;;;;10.92;40.03;100429.44;5007080;28;20536;-72
2021/04/29 07:59:13;;;;;;;13.90;4.00;;;;;;;11.36;40.83;100421.84;5027530;28;20127;-72
2021/04/29 08:01:39;;;;;;;9.82;4.50;;;;;;;11.33;40.38;100427.19;4993001;28;20410;-69
2021/04/29 08:04:05;;;;;;;6.25;3.80;;;;;;;11.40;39.66;100427.06;5009083;28;20056;-72
2021/04/29 08:06:34;;;;;;;11.13;2.83;;;;;;;10.83;41.21;100408.28;5008019;28;20041;-72
2021/04/29 08:09:02;;;;;;;9.65;4.90;;;;;;;13.03;38.47;100428.03;4973840;28;20493;-71
2021/04/29 08:11:28;;;;;;;18.08;4.72;;;;;;;14.39;36.20;100439.22;5008827;28;20045;-68
2021/04/29 08:13:54;;;;;;;6.53;3.05;;;;;;;15.48;33.69;100428.25;5025337;28;20052;-70
2021/04/29 08:16:20;;;;;;;8.55;3.30;;;;;;;16.63;32.78;100446.88;5026903;28;20045;-70
2021/04/29 08:18:48;;;;;;;11.27;3.20;;;;;;;18.72;30.18;100437.03;4992816;28;20515;-71
2021/04/29 08:21:14;;;;;;;9.80;3.30;;;;;;;20.58;28.50;100417.53;4991174;28;20175;-69
2021/04/29 08:23:43;;;;;;;7.63;2.50;;;;;;;19.69;27.52;100447.03;4993638;28;21275;-71
2021/04/29 08:26:14;;;;;;;5.60;2.88;;;;;;;21.25;26.41;100440.09;4960365;28;20392;-71
2021/04/29 08:28:40;;;;;;;5.25;2.20;;;;;;;17.36;29.48;100425.47;5008865;28;20037;-70
2021/04/29 08:31:07;;;;;;;9.52;2.30;;;;;;;15.71;32.28;100427.53;4991590;28;20045;-71
2021/04/29 08:33:34;;;;;;;7.38;2.30;;;;;;;15.28;32.38;100422.56;4992599;28;20041;-72
2021/04/29 08:36:00;;;;;;;7.30;2.25;;;;;;;14.30;32.84;100415.44;5008794;28;20195;-72
2021/04/29 08:38:26;;;;;;;6.80;2.38;;;;;;;12.90;33.51;100370.59;5001287;28;20425;-73
2021/04/29 08:40:52;;;;;;;2.80;2.33;;;;;;;12.42;34.60;100422.03;5022593;28;20037;-71
2021/04/29 08:43:20;;;;;;;4.88;1.85;;;;;;;12.44;34.54;100406.91;5025816;28;20071;-72
2021/04/29 08:45:48;;;;;;;5.28;2.50;;;;;;;13.10;35.57;100403.91;5025116;28;20045;-70
2021/04/29 08:48:21;;;;;;;4.88;2.10;;;;;;;12.82;34.63;100409.78;4991466;28;20042;-72
2021/04/29 08:50:47;;;;;;;5.75;2.75;;;;;;;13.28;34.64;100399.97;5007851;28;20119;-72
2021/04/29 08:53:13;;;;;;;6.55;3.08;;;;;;;13.37;33.85;100403.34;5008237;28;20053;-72
2021/04/29 08:55:41;;;;;;;8.73;2.70;;;;;;;13.84;33.67;100389.84;4989862;28;20049;-71
2021/04/29 08:58:08;;;;;;;4.05;2.72;;;;;;;13.23;33.74;100400.09;4992418;28;20048;-72
2021/04/29 09:00:34;;;;;;;5.10;2.17;;;;;;;12.47;35.50;100381.13;5026528;28;20426;-71
2021/04/29 09:03:00;;;;;;;12.57;2.60;;;;;;;13.26;34.56;100394.69;4990150;28;20045;-72
2021/04/29 09:05:34;;;;;;;14.13;2.70;;;;;;;14.84;32.98;100401.56;5008583;28;20890;-70
2021/04/29 09:08:09;;;;;;;3.60;2.13;;;;;;;13.00;33.69;100388.13;4975358;28;20405;-72
2021/04/29 09:10:41;;;;;;;4.47;1.98;;;;;;;13.47;33.32;100383.59;4999943;28;20115;-72
2021/04/29 09:13:16;;;;;;;5.57;2.00;;;;;;;13.02;33.54;100389.00;5026817;28;20076;-71
2021/04/29 09:15:48;;;;;;;6.95;2.30;;;;;;;13.80;32.97;100397.94;4991651;28;20041;-69
2021/04/29 09:18:31;;;;;;;3.20;1.95;;;;;;;13.78;33.12;100387.28;5009794;28;20051;-72
2021/04/29 09:21:01;;;;;;;6.32;2.17;;;;;;;15.35;31.58;100391.22;5025736;28;20045;-71
2021/04/29 09:23:32;;;;;;;7.80;2.30;;;;;;;15.28;31.44;100390.50;5023911;28;20065;-71
2021/04/29 09:26:06;;;;;;;6.63;1.75;;;;;;;14.44;31.15;100382.13;5007165;28;20048;-75
2021/04/29 09:28:40;;;;;;;6.90;2.30;;;;;;;14.81;31.20;100390.94;5026091;28;20052;-73
2021/04/29 09:31:14;;;;;;;8.32;2.15;;;;;;;14.01;31.95;100381.44;5025514;28;20049;-71
2021/04/29 09:33:47;;;;;;;9.13;4.63;;;;;;;13.76;33.10;100383.81;4991258;28;20037;-71
2021/04/29 09:36:25;;;;;;;11.55;3.83;;;;;;;14.02;32.98;100381.38;5005732;28;20096;-72
2021/04/29 09:38:56;;;;;;;18.55;3.78;;;;;;;13.37;33.33;100307.44;5025242;28;20122;-72
2021/04/29 09:41:32;;;;;;;11.60;5.88;;;;;;;14.18;31.63;100379.25;5006807;28;20037;-76
2021/04/29 09:44:12;;;;;;;11.52;6.18;;;;;;;15.18;30.89;100370.28;5026135;28;20041;-80
2021/04/29 09:46:53;;;;;;;10.70;4.78;;;;;;;15.22;30.92;100376.41;5025836;28;20175;-75
2021/04/29 09:49:31;;;;;;;12.45;4.80;;;;;;;14.37;32.10;100372.56;4991875;28;20509;-75
2021/04/29 09:51:59;;;;;;;4.85;2.78;;;;;;;14.58;32.22;100371.09;4996520;28;20042;-72
2021/04/29 09:54:24;;;;;;;7.40;3.67;;;;;;;14.52;32.18;100373.94;5010147;28;20072;-75
2021/04/29 09:56:58;;;;;;;18.52;4.78;;;;;;;15.66;31.80;100379.53;5028927;28;20072;-76
2021/04/29 09:59:25;;;;;;;7.93;3.45;;;;;;;15.16;32.06;100363.25;5029779;28;20048;-73
2021/04/29 10:01:53;;;;;;;10.25;2.80;;;;;;;14.56;32.34;100365.81;4993086;28;20041;-74
2021/04/29 10:04:21;;;;;;;6.78;3.30;;;;;;;13.93;33.51;100362.09;5011530;28;20148;-75
2021/04/29 10:06:51;;;;;;;8.30;4.00;;;;;;;13.39;34.44;100358.91;5010488;28;20045;-77
2021/04/29 10:09:31;;;;;;;5.53;2.65;;;;;;;13.75;33.68;100343.84;4995242;28;20050;-78
2021/04/29 10:12:02;;;;;;;5.60;2.22;;;;;;;13.70;32.47;100340.44;5013472;28;20160;-79
2021/04/29 10:14:33;;;;;;;8.25;3.75;;;;;;;13.49;32.81;100355.13;5014900;28;20215;-79
2021/04/29 10:17:03;;;;;;;8.82;3.00;;;;;;;13.67;32.53;100354.72;5013325;28;20099;-78
2021/04/29 10:19:31;;;;;;;3.30;2.17;;;;;;;13.87;32.82;100356.91;4996571;28;20060;-76
2021/04/29 10:22:00;;;;;;;10.38;2.90;;;;;;;13.27;33.76;100324.56;5012521;28;20041;-77
2021/04/29 10:24:27;;;;;;;6.85;2.50;;;;;;;13.17;33.89;100364.69;5009943;28;20045;-76
2021/04/29 10:27:07;;;;;;;5.25;2.47;;;;;;;12.99;34.33;100354.44;5010582;28;20453;-76
2021/04/29 10:29:34;;;;;;;4.95;2.78;;;;;;;13.22;34.68;100347.72;4994442;28;20143;-74
2021/04/29 10:32:09;;;;;;;6.43;3.20;;;;;;;13.24;34.27;100332.59;5011510;28;20042;-75
2021/04/29 10:34:44;;;;;;;9.25;6.03;;;;;;;17.24;30.21;100368.72;4998274;28;20468;-74
2021/04/29 10:37:25;;;;;;;8.35;3.13;;;;;;;19.95;26.48;100360.53;4998048;28;20183;-74
2021/04/29 10:40:03;;;;;;;7.57;2.22;;;;;;;17.30;28.68;100360.47;5035223;28;20152;-78
2021/04/29 10:42:53;;;;;;;6.70;2.42;;;;;;;17.05;30.02;100359.66;5034601;28;20068;-69
2021/04/29 10:45:30;;;;;;;;;;;;;;;17.04;30.66;100372.16;5013040;28;20049;-67
2021/04/29 10:48:12;;;;;;;8.20;3.50;;;;;;;17.47;29.68;100318.72;5009483;28;19925;-71
2021/04/29 10:50:49;;;;;;;4.70;2.38;;;;;;;17.20;30.02;100367.97;5029663;28;20462;-70
2021/04/29 10:53:27;;;;;;;3.90;2.53;;;;;;;15.52;31.59;100357.72;5026291;28;20052;-72
2021/04/29 10:56:23;;;;;;;5.97;2.55;;;;;;;14.85;32.58;100346.34;4993586;28;20067;-70
2021/04/29 10:58:50;;;;;;;9.55;2.55;;;;;;;14.54;33.09;100362.31;5011184;28;20134;-72
2021/04/29 11:01:19;;;;;;;7.07;2.40;;;;;;;14.38;32.05;100336.06;4993806;28;20037;-69
2021/04/29 11:03:50;;;;;;;3.22;2.10;;;;;;;14.84;32.10;100341.91;4992864;28;20044;-70
2021/04/29 11:06:39;;;;;;;11.15;2.20;;;;;;;15.09;31.87;100351.88;5014755;28;20048;-72
2021/04/29 11:09:21;;;;;;;9.70;2.80;;;;;;;14.35;32.86;100354.84;5012600;28;20049;-74
2021/04/29 11:12:23;;;;;;;6.18;2.25;;;;;;;14.66;33.08;100347.75;5022861;28;20877;-71
2021/04/29 11:14:49;;;;;;;4.28;2.30;;;;;;;14.52;32.83;100353.47;5010112;28;20049;-72
2021/04/29 11:17:26;;;;;;;7.65;2.40;;;;;;;14.86;32.95;100358.75;5027021;28;20509;-72
2021/04/29 11:19:58;;;;;;;2.97;2.65;;;;;;;17.15;30.55;100355.69;4974779;28;20053;-74
2021/04/29 11:22:37;;;;;;;9.55;2.85;;;;;;;18.52;29.01;100356.44;4993005;28;20052;-75
2021/04/29 11:25:10;;;;;;;6.15;2.58;;;;;;;19.21;27.75;100347.91;4977076;28;20076;-72
2021/04/29 11:27:40;;;;;;;6.63;2.13;;;;;;;19.26;27.62;100342.38;5009006;28;20094;-73
2021/04/29 11:30:09;;;;;;;8.60;2.40;;;;;;;18.65;28.14;100349.56;5009342;28;20054;-75
2021/04/29 11:32:37;;;;;;;6.47;2.35;;;;;;;17.92;29.31;100346.38;5009577;28;20128;-74
2021/04/29 11:35:18;;;;;;;4.00;2.67;;;;;;;15.38;32.05;100345.72;4992915;28;21025;-73